Time;durP1;ratioP1;P1;durP2;ratioP2;P2;SDS_P1;SDS_P2;PMS_P1;PMS_P2;Temp;Humidity;BMP_temperature;BMP_pressure;BME280_temperature;BME280_humidity;BME280_pressure;Samples;Min_cycle;Max_cycle;Signal;HPM_P1;HPM_P2
2021/10/31 00:00:36;;;;;;;1.83;1.70;;;14.10;99.90;;;;;;5053700;28;20057;-68
2021/10/31 00:03:02;;;;;;;5.35;1.48;;;14.00;99.90;;;;;;5055112;28;20036;-68
2021/10/31 00:05:28;;;;;;;2.38;1.52;;;14.00;99.90;;;;;;5054390;28;20037;-68
2021/10/31 00:07:54;;;;;;;2.13;1.50;;;14.00;99.90;;;;;;5054400;28;20028;-69
2021/10/31 00:10:20;;;;;;;2.55;1.45;;;13.90;99.90;;;;;;5054301;28;20496;-68
2021/10/31 00:12:46;;;;;;;2.28;1.60;;;13.90;99.90;;;;;;5053158;28;20048;-69
2021/10/31 00:15:12;;;;;;;2.22;1.40;;;13.80;99.90;;;;;;5054656;28;20433;-68
2021/10/31 00:17:38;;;;;;;2.53;1.65;;;13.70;99.90;;;;;;5053381;28;20087;-69
2021/10/31 00:20:06;;;;;;;2.58;1.30;;;13.60;99.90;;;;;;5054013;28;20032;-68
2021/10/31 00:22:32;;;;;;;2.15;1.95;;;13.60;99.90;;;;;;5053932;28;20028;-68
2021/10/31 00:24:58;;;;;;;1.35;1.25;;;13.60;99.90;;;;;;5053513;28;20033;-68
2021/10/31 00:27:23;;;;;;;2.80;1.50;;;13.50;99.90;;;;;;5054136;28;20385;-68
2021/10/31 00:29:49;;;;;;;3.08;1.80;;;13.50;99.90;;;;;;5052803;28;20537;-68
2021/10/31 00:32:15;;;;;;;3.28;1.90;;;13.40;99.90;;;;;;5054358;28;20025;-68
2021/10/31 00:34:40;;;;;;;1.60;1.27;;;13.50;99.90;;;;;;5053198;28;20104;-68
2021/10/31 00:37:06;;;;;;;1.50;1.10;;;13.50;99.90;;;;;;5053991;28;20047;-68
2021/10/31 00:39:32;;;;;;;1.55;1.30;;;13.50;99.90;;;;;;5053976;28;20377;-68
2021/10/31 00:41:58;;;;;;;1.88;1.25;;;13.50;99.90;;;;;;5052974;28;20096;-68
2021/10/31 00:44:24;;;;;;;1.38;1.27;;;13.50;99.90;;;;;;5053691;28;20086;-69
2021/10/31 00:46:50;;;;;;;1.27;1.15;;;13.60;99.90;;;;;;5052649;28;20116;-69
2021/10/31 00:49:17;;;;;;;1.73;1.10;;;13.60;99.90;;;;;;5053218;28;20063;-69
2021/10/31 00:51:42;;;;;;;1.20;1.10;;;13.60;99.90;;;;;;5052637;28;20054;-68
2021/10/31 00:54:09;;;;;;;1.25;1.00;;;13.60;99.90;;;;;;5053357;28;20108;-68
2021/10/31 00:56:37;;;;;;;1.55;1.30;;;13.60;99.90;;;;;;5053163;28;20033;-68
2021/10/31 00:59:03;;;;;;;1.38;1.27;;;13.50;99.90;;;;;;5053423;28;20427;-68
2021/10/31 01:01:30;;;;;;;1.27;1.17;;;13.40;99.90;;;;;;5053016;28;20040;-68
2021/10/31 01:03:56;;;;;;;2.85;1.38;;;13.40;99.90;;;;;;5052836;28;20028;-68
2021/10/31 01:06:37;;;;;;;1.55;1.35;;;13.30;99.90;;;;;;5053443;28;20028;-69
2021/10/31 01:09:24;;;;;;;4.63;2.75;;;13.20;99.90;;;;;;5053195;28;20109;-68
2021/10/31 01:11:58;;;;;;;4.95;3.42;;;13.10;99.90;;;;;;5052279;28;20029;-68
2021/10/31 01:14:33;;;;;;;6.68;4.55;;;12.90;99.90;;;;;;5053701;28;20568;-68
2021/10/31 01:17:37;;;;;;;5.95;4.75;;;12.70;99.90;;;;;;5052131;28;20454;-68
2021/10/31 01:20:15;;;;;;;7.65;5.47;;;12.50;99.90;;;;;;5040786;28;20479;-70
2021/10/31 01:23:15;;;;;;;9.15;5.00;;;12.30;99.90;;;;;;5046761;28;20079;-68
2021/10/31 01:26:06;;;;;;;9.68;5.53;;;12.10;99.90;;;;;;5032541;28;20031;-68
2021/10/31 01:28:55;;;;;;;10.15;7.18;;;11.80;99.90;;;;;;5053101;28;20041;-68
2021/10/31 01:32:00;;;;;;;11.93;7.07;;;11.60;99.90;;;;;;5052794;28;20033;-68
2021/10/31 01:34:34;;;;;;;11.75;7.65;;;11.40;99.90;;;;;;5052813;28;20036;-68
2021/10/31 01:37:11;;;;;;;10.90;7.10;;;11.20;99.90;;;;;;5051639;28;20478;-68
2021/10/31 01:39:58;;;;;;;11.77;8.32;;;11.00;99.90;;;;;;5051907;28;20047;-68
2021/10/31 01:42:31;;;;;;;14.35;8.43;;;10.90;99.90;;;;;;5052148;28;20378;-68
2021/10/31 01:45:13;;;;;;;10.68;7.95;;;10.70;99.90;;;;;;5052037;28;20114;-68
2021/10/31 01:47:43;;;;;;;12.63;8.32;;;10.60;99.90;;;;;;5052036;28;20486;-68
2021/10/31 01:50:34;;;;;;;11.00;7.73;;;10.50;99.90;;;;;;5052413;28;20028;-68
2021/10/31 01:53:14;;;;;;;14.07;8.70;;;10.40;99.90;;;;;;5051939;28;20028;-68
2021/10/31 01:55:56;;;;;;;12.82;8.93;;;10.30;99.90;;;;;;5052009;28;20115;-68
2021/10/31 01:58:23;;;;;;;12.75;8.75;;;10.30;99.90;;;;;;5052036;28;20390;-68
2021/10/31 02:00:51;;;;;;;12.65;8.52;;;10.10;99.90;;;;;;5051450;28;20029;-68
2021/10/31 02:03:19;;;;;;;12.45;8.68;;;10.20;99.90;;;;;;5052161;28;20108;-68
2021/10/31 02:05:48;;;;;;;12.02;7.95;;;10.10;99.90;;;;;;5051163;28;20025;-68
2021/10/31 02:08:17;;;;;;;11.63;8.27;;;10.00;99.90;;;;;;5051422;28;20025;-68
2021/10/31 02:10:46;;;;;;;13.18;9.05;;;9.90;99.90;;;;;;5050874;28;20029;-68
2021/10/31 02:13:14;;;;;;;11.85;8.35;;;9.80;99.90;;;;;;5052408;28;20021;-68
2021/10/31 02:15:43;;;;;;;12.30;8.82;;;9.70;99.90;;;;;;5051461;28;20130;-69
2021/10/31 02:18:11;;;;;;;11.05;8.77;;;9.60;99.90;;;;;;5032362;28;20037;-68
2021/10/31 02:20:43;;;;;;;12.68;9.23;;;9.50;99.90;;;;;;5045480;28;20052;-68
2021/10/31 02:23:09;;;;;;;13.13;8.15;;;9.40;99.90;;;;;;5052127;28;20029;-68
2021/10/31 02:25:35;;;;;;;14.70;9.95;;;9.30;99.90;;;;;;5052295;28;20401;-68
2021/10/31 02:28:02;;;;;;;12.45;8.95;;;9.30;99.90;;;;;;5051410;28;20061;-68
2021/10/31 02:30:28;;;;;;;11.75;8.35;;;9.20;99.90;;;;;;5050743;28;20044;-68
2021/10/31 02:32:53;;;;;;;10.80;8.13;;;9.20;99.90;;;;;;5050846;28;20037;-67
2021/10/31 02:35:21;;;;;;;14.15;8.73;;;9.10;99.90;;;;;;5052312;28;20057;-67
2021/10/31 02:37:48;;;;;;;12.57;8.98;;;9.00;99.90;;;;;;5050685;28;20044;-67
2021/10/31 02:40:16;;;;;;;13.45;9.65;;;9.00;99.90;;;;;;5051741;28;20114;-67
2021/10/31 02:42:43;;;;;;;14.23;9.07;;;8.90;99.90;;;;;;5050929;28;20025;-68
2021/10/31 02:45:10;;;;;;;14.80;8.73;;;8.80;99.90;;;;;;5051586;28;20393;-67
2021/10/31 02:47:59;;;;;;;12.85;9.73;;;8.80;99.90;;;;;;5051730;28;20025;-67
2021/10/31 02:50:29;;;;;;;12.45;8.45;;;8.70;99.90;;;;;;5051675;28;20029;-67
2021/10/31 02:53:03;;;;;;;14.90;8.98;;;8.70;99.90;;;;;;5050915;28;20068;-67
2021/10/31 02:55:47;;;;;;;14.10;9.73;;;8.70;99.90;;;;;;5051288;28;20064;-67
2021/10/31 02:58:28;;;;;;;14.13;9.07;;;8.70;99.90;;;;;;5051518;28;20033;-67
2021/10/31 03:00:58;;;;;;;13.82;9.43;;;8.70;99.90;;;;;;5050863;28;20028;-67
2021/10/31 03:03:25;;;;;;;11.32;8.70;;;8.70;99.90;;;;;;5051756;28;20030;-67
2021/10/31 03:05:57;;;;;;;11.07;8.15;;;8.80;99.90;;;;;;5050722;28;20035;-67
2021/10/31 03:08:27;;;;;;;11.00;7.93;;;8.80;99.90;;;;;;5051701;28;20025;-68
2021/10/31 03:10:59;;;;;;;10.27;6.72;;;8.80;99.90;;;;;;5049971;28;20033;-67
2021/10/31 03:13:26;;;;;;;9.15;6.72;;;8.90;99.90;;;;;;5051779;28;20040;-67
2021/10/31 03:15:52;;;;;;;7.15;6.40;;;8.90;99.90;;;;;;5052656;28;20033;-67
2021/10/31 03:18:19;;;;;;;10.95;6.10;;;8.90;99.90;;;;;;5055341;28;20405;-67
2021/10/31 03:20:45;;;;;;;7.68;5.80;;;8.90;99.90;;;;;;5054209;28;20025;-67
2021/10/31 03:23:10;;;;;;;7.10;4.88;;;8.90;99.90;;;;;;5055499;28;20104;-67
2021/10/31 03:25:36;;;;;;;7.80;4.63;;;8.90;99.90;;;;;;5054907;28;20107;-67
2021/10/31 03:28:02;;;;;;;5.75;4.40;;;8.90;99.90;;;;;;5054624;28;20040;-67
2021/10/31 03:30:28;;;;;;;6.10;4.13;;;9.00;99.90;;;;;;5055097;28;20033;-67
2021/10/31 03:32:54;;;;;;;6.88;4.68;;;9.00;99.90;;;;;;5054328;28;20025;-67
2021/10/31 03:35:20;;;;;;;5.60;4.63;;;8.90;99.90;;;;;;5055376;28;20028;-67
2021/10/31 03:37:46;;;;;;;5.95;4.30;;;8.90;99.90;;;;;;5054054;28;20033;-67
2021/10/31 03:40:11;;;;;;;6.18;4.60;;;8.90;99.90;;;;;;5055451;28;20035;-67
2021/10/31 03:42:38;;;;;;;6.15;4.22;;;8.80;99.90;;;;;;5055869;28;20072;-67
2021/10/31 03:45:06;;;;;;;6.10;4.60;;;8.80;99.90;;;;;;5053207;28;20060;-67
2021/10/31 03:47:34;;;;;;;5.13;3.88;;;8.80;99.90;;;;;;5053605;28;20033;-67
2021/10/31 03:50:00;;;;;;;4.93;3.67;;;8.70;99.90;;;;;;5053951;28;20701;-67
2021/10/31 03:52:26;;;;;;;5.85;3.78;;;8.70;99.90;;;;;;5055235;28;20025;-67
2021/10/31 03:54:52;;;;;;;6.50;3.65;;;8.70;99.90;;;;;;5052698;28;20478;-68
2021/10/31 03:57:18;;;;;;;4.93;3.80;;;8.70;99.90;;;;;;5053325;28;20114;-67
2021/10/31 03:59:44;;;;;;;4.22;3.22;;;8.60;99.90;;;;;;5052668;28;20051;-67
2021/10/31 04:02:10;;;;;;;4.47;3.50;;;8.60;99.90;;;;;;5053361;28;20068;-67
2021/10/31 04:04:36;;;;;;;3.95;2.85;;;8.60;99.90;;;;;;5053676;28;20023;-67
2021/10/31 04:07:02;;;;;;;5.05;3.33;;;8.60;99.90;;;;;;5052079;28;20371;-67
2021/10/31 04:09:28;;;;;;;3.92;2.97;;;8.60;99.90;;;;;;5052221;28;20104;-67
2021/10/31 04:11:53;;;;;;;3.53;2.40;;;8.70;99.90;;;;;;5052135;28;20036;-67
2021/10/31 04:14:19;;;;;;;3.85;2.78;;;8.80;99.90;;;;;;5053701;28;20040;-67
2021/10/31 04:16:45;;;;;;;4.07;2.58;;;9.00;99.90;;;;;;5052547;28;20480;-67
2021/10/31 04:19:11;;;;;;;2.53;2.13;;;9.10;99.90;;;;;;5052624;28;20478;-67
2021/10/31 04:21:36;;;;;;;2.90;2.10;;;9.10;99.90;;;;;;5053310;28;20134;-67
2021/10/31 04:24:02;;;;;;;2.17;1.98;;;9.20;99.90;;;;;;5052316;28;20083;-67
2021/10/31 04:26:28;;;;;;;2.50;2.20;;;9.20;99.90;;;;;;5052346;28;20036;-67
2021/10/31 04:28:54;;;;;;;3.63;2.78;;;9.20;99.90;;;;;;5051618;28;20045;-67
2021/10/31 04:31:19;;;;;;;2.33;2.13;;;9.10;99.90;;;;;;5052363;28;20029;-67
2021/10/31 04:33:45;;;;;;;2.50;2.28;;;9.10;99.90;;;;;;5052133;28;20032;-67
2021/10/31 04:36:11;;;;;;;3.55;2.50;;;9.10;99.90;;;;;;5052905;28;20067;-67
2021/10/31 04:38:37;;;;;;;3.17;2.33;;;9.00;99.90;;;;;;5052629;28;20025;-67
2021/10/31 04:41:05;;;;;;;2.75;2.15;;;8.90;99.90;;;;;;5051824;28;20029;-67
2021/10/31 04:43:31;;;;;;;3.53;2.67;;;8.80;99.90;;;;;;5051948;28;20037;-67
2021/10/31 04:45:56;;;;;;;4.65;2.67;;;8.80;99.90;;;;;;5051804;28;20032;-67
2021/10/31 04:48:24;;;;;;;3.10;2.75;;;8.80;99.90;;;;;;5052408;28;20025;-67
2021/10/31 04:50:53;;;;;;;4.18;2.58;;;8.70;99.90;;;;;;5051729;28;20036;-67
2021/10/31 04:53:19;;;;;;;4.83;3.60;;;8.70;99.90;;;;;;5050186;28;20048;-67
2021/10/31 04:55:45;;;;;;;3.63;3.05;;;8.70;99.90;;;;;;5051292;28;20270;-67
2021/10/31 04:58:11;;;;;;;3.97;3.25;;;8.70;99.90;;;;;;5052070;28;20033;-67
2021/10/31 05:00:38;;;;;;;3.67;3.13;;;8.60;99.90;;;;;;5051123;28;20033;-66
2021/10/31 05:03:04;;;;;;;3.38;3.03;;;8.60;99.90;;;;;;5051405;28;20033;-66
2021/10/31 05:05:31;;;;;;;4.38;3.55;;;8.60;99.90;;;;;;5051911;28;20489;-66
2021/10/31 05:07:58;;;;;;;4.45;2.90;;;8.60;99.90;;;;;;5048848;28;20028;-67
2021/10/31 05:10:25;;;;;;;4.15;3.08;;;8.60;99.90;;;;;;5052300;28;20032;-67
2021/10/31 05:12:52;;;;;;;4.47;3.17;;;8.60;99.90;;;;;;5051065;28;20033;-67
2021/10/31 05:15:18;;;;;;;4.50;3.60;;;8.60;99.90;;;;;;5052108;28;20071;-67
2021/10/31 05:17:44;;;;;;;9.43;6.28;;;8.60;99.90;;;;;;5050804;28;20576;-67
2021/10/31 05:20:11;;;;;;;5.90;4.53;;;8.60;99.90;;;;;;5051721;28;20119;-67
2021/10/31 05:22:38;;;;;;;6.85;4.30;;;8.60;99.90;;;;;;5052115;28;20111;-67
2021/10/31 05:25:08;;;;;;;6.72;4.45;;;8.60;99.90;;;;;;5051141;28;20028;-67
2021/10/31 05:27:35;;;;;;;5.45;4.13;;;8.60;99.90;;;;;;5051389;28;20032;-67
2021/10/31 05:30:01;;;;;;;7.88;4.90;;;8.60;99.90;;;;;;5051141;28;20213;-67
2021/10/31 05:32:34;;;;;;;10.82;5.97;;;8.60;99.90;;;;;;5051327;28;20119;-67
2021/10/31 05:35:01;;;;;;;6.13;4.43;;;8.60;99.90;;;;;;5048974;28;20044;-66
2021/10/31 05:37:45;;;;;;;6.10;4.00;;;8.60;99.90;;;;;;5051583;28;20079;-67
2021/10/31 05:40:14;;;;;;;3.65;2.50;;;8.60;99.90;;;;;;5051098;28;20596;-67
2021/10/31 05:42:45;;;;;;;6.43;2.95;;;8.70;99.90;;;;;;5051300;28;20029;-67
2021/10/31 05:45:11;;;;;;;3.72;2.67;;;8.70;99.90;;;;;;5050968;28;20064;-67
2021/10/31 05:47:38;;;;;;;4.57;2.65;;;8.70;99.90;;;;;;5051005;28;20029;-67
2021/10/31 05:50:07;;;;;;;6.25;4.07;;;8.60;99.90;;;;;;5050545;28;20103;-67
2021/10/31 05:52:34;;;;;;;5.95;3.60;;;8.60;99.90;;;;;;5051985;28;20052;-67
2021/10/31 05:55:00;;;;;;;2.63;2.42;;;8.60;99.90;;;;;;5051306;28;20017;-69
2021/10/31 05:57:27;;;;;;;3.03;2.67;;;8.50;99.90;;;;;;5051679;28;20371;-68
2021/10/31 05:59:53;;;;;;;3.03;2.72;;;8.50;99.90;;;;;;5050644;28;20021;-68
2021/10/31 06:02:19;;;;;;;4.88;3.55;;;8.50;99.90;;;;;;5050845;28;20032;-68
2021/10/31 06:04:46;;;;;;;5.32;2.92;;;8.40;99.90;;;;;;5049785;28;20024;-66
2021/10/31 06:07:13;;;;;;;3.40;2.80;;;8.40;99.90;;;;;;5050331;28;20452;-66
2021/10/31 06:09:39;;;;;;;5.13;3.63;;;8.40;99.90;;;;;;5050306;28;20102;-66
2021/10/31 06:12:05;;;;;;;4.22;3.20;;;8.50;99.90;;;;;;5049780;28;20139;-67
2021/10/31 06:14:38;;;;;;;4.18;3.55;;;8.50;99.90;;;;;;5050610;28;20033;-67
2021/10/31 06:17:04;;;;;;;5.13;3.30;;;8.50;99.90;;;;;;5049082;28;20493;-67
2021/10/31 06:19:32;;;;;;;5.63;3.78;;;8.50;99.90;;;;;;5049435;28;20036;-66
2021/10/31 06:21:58;;;;;;;5.85;3.53;;;8.60;99.90;;;;;;5049493;28;20033;-67
2021/10/31 06:24:24;;;;;;;4.80;3.60;;;8.60;99.90;;;;;;5050749;28;20033;-66
2021/10/31 06:26:49;;;;;;;6.20;4.25;;;8.70;99.90;;;;;;5046045;28;20055;-67
2021/10/31 06:29:16;;;;;;;8.65;5.32;;;8.60;99.90;;;;;;5048305;28;20029;-67
2021/10/31 06:31:41;;;;;;;8.32;5.28;;;8.70;99.90;;;;;;5049687;28;20385;-67
2021/10/31 06:34:07;;;;;;;8.50;4.75;;;8.70;99.90;;;;;;5049685;28;20021;-67
2021/10/31 06:36:33;;;;;;;7.15;4.57;;;8.80;99.90;;;;;;5048290;28;20021;-67
2021/10/31 06:38:59;;;;;;;7.35;4.93;;;8.80;99.90;;;;;;5048800;28;20135;-67
2021/10/31 06:41:25;;;;;;;7.15;5.07;;;8.90;99.90;;;;;;5049755;28;20359;-67
2021/10/31 06:43:51;;;;;;;5.85;4.40;;;9.00;99.90;;;;;;5048681;28;20652;-67
2021/10/31 06:46:17;;;;;;;7.28;4.50;;;9.00;99.90;;;;;;5049786;28;20110;-68
2021/10/31 06:48:44;;;;;;;7.30;4.70;;;9.10;99.90;;;;;;5048702;28;20036;-67
2021/10/31 06:51:09;;;;;;;7.75;5.78;;;9.10;99.90;;;;;;5049195;28;20102;-69
2021/10/31 06:53:35;;;;;;;10.88;6.20;;;9.10;99.90;;;;;;5050094;28;20056;-68
2021/10/31 06:56:01;;;;;;;11.02;6.53;;;9.10;99.90;;;;;;5049097;28;20028;-69
2021/10/31 06:58:28;;;;;;;10.23;4.80;;;9.10;99.90;;;;;;5049574;28;20115;-67
2021/10/31 07:00:53;;;;;;;7.55;5.32;;;9.20;99.90;;;;;;5049267;28;20052;-67
2021/10/31 07:03:19;;;;;;;7.93;5.40;;;9.20;99.90;;;;;;5049927;28;20056;-67
2021/10/31 07:05:45;;;;;;;6.43;5.18;;;9.30;99.90;;;;;;5049038;28;20025;-68
2021/10/31 07:08:11;;;;;;;10.82;6.80;;;9.30;99.90;;;;;;5049782;28;20045;-67
2021/10/31 07:10:38;;;;;;;9.85;7.50;;;9.50;99.90;;;;;;5050165;28;20021;-67
2021/10/31 07:13:04;;;;;;;14.10;9.02;;;9.60;99.90;;;;;;5048549;28;20025;-67
2021/10/31 07:15:30;;;;;;;13.27;9.10;;;9.60;99.90;;;;;;5050257;28;20029;-68
2021/10/31 07:17:57;;;;;;;12.77;9.52;;;9.60;99.90;;;;;;5047771;28;20363;-67
2021/10/31 07:20:26;;;;;;;10.95;8.88;;;9.60;99.90;;;;;;5049912;28;20067;-68
2021/10/31 07:22:55;;;;;;;12.93;8.57;;;9.60;99.90;;;;;;5049360;28;20489;-68
2021/10/31 07:25:23;;;;;;;12.00;9.05;;;9.60;99.90;;;;;;5049460;28;20409;-67
2021/10/31 07:27:51;;;;;;;14.68;8.98;;;9.60;99.90;;;;;;5047937;28;20048;-67
2021/10/31 07:30:17;;;;;;;15.43;9.85;;;9.70;99.90;;;;;;5050435;28;20078;-68
2021/10/31 07:32:51;;;;;;;13.27;10.00;;;9.80;99.90;;;;;;5050437;28;20382;-68
2021/10/31 07:35:17;;;;;;;13.15;9.63;;;9.80;99.90;;;;;;5051209;28;20025;-67
2021/10/31 07:37:43;;;;;;;11.23;8.50;;;9.80;99.90;;;;;;5050881;28;20389;-67
2021/10/31 07:40:09;;;;;;;11.50;8.82;;;9.90;99.90;;;;;;5049385;28;20410;-66
2021/10/31 07:42:37;;;;;;;13.23;9.75;;;9.90;99.90;;;;;;5050137;28;20482;-69
2021/10/31 07:45:04;;;;;;;12.75;9.20;;;10.00;99.90;;;;;;5050230;28;20612;-77
2021/10/31 07:47:29;;;;;;;9.50;8.13;;;10.10;99.90;;;;;;5050963;28;20033;-79
2021/10/31 07:49:55;;;;;;;12.65;8.82;;;10.10;99.90;;;;;;5050355;28;20531;-78
2021/10/31 07:52:21;;;;;;;10.77;8.10;;;10.20;99.90;;;;;;5051030;28;20032;-73
2021/10/31 07:54:48;;;;;;;14.75;9.30;;;10.20;99.90;;;;;;5050502;28;20167;-75
2021/10/31 07:57:19;;;;;;;10.52;8.50;;;10.40;99.90;;;;;;5050810;28;20037;-77
2021/10/31 07:59:45;;;;;;;10.27;7.97;;;10.50;99.90;;;;;;5049636;28;20032;-78
2021/10/31 08:02:11;;;;;;;10.88;7.75;;;10.70;99.90;;;;;;5052968;28;20116;-79
2021/10/31 08:04:37;;;;;;;9.98;8.02;;;10.70;99.90;;;;;;5054905;28;20155;-81
2021/10/31 08:07:03;;;;;;;9.90;6.70;;;10.80;99.90;;;;;;5054089;28;20680;-76
2021/10/31 08:09:28;;;;;;;10.27;6.63;;;10.90;99.90;;;;;;5054376;28;20436;-88
2021/10/31 08:11:54;;;;;;;6.90;5.85;;;11.00;99.90;;;;;;5052609;28;20107;-83
2021/10/31 08:14:20;;;;;;;8.52;6.32;;;11.00;99.90;;;;;;5054157;28;20032;-77
2021/10/31 08:16:46;;;;;;;9.27;6.68;;;11.10;99.90;;;;;;5053704;28;20029;-75
2021/10/31 08:19:11;;;;;;;13.38;8.48;;;11.20;99.90;;;;;;5054564;28;20055;-76
2021/10/31 08:21:38;;;;;;;10.75;8.88;;;11.30;99.90;;;;;;5054046;28;20065;-74
2021/10/31 08:24:05;;;;;;;12.77;8.85;;;11.40;99.90;;;;;;5053518;28;20094;-75
2021/10/31 08:26:31;;;;;;;9.45;7.75;;;11.40;99.90;;;;;;5053712;28;20484;-77
2021/10/31 08:29:00;;;;;;;11.63;8.45;;;11.40;99.90;;;;;;5053670;28;20033;-73
2021/10/31 08:31:28;;;;;;;12.63;8.40;;;11.50;99.90;;;;;;5053116;28;20433;-75
2021/10/31 08:33:58;;;;;;;9.93;7.65;;;11.50;99.90;;;;;;5053341;28;20037;-72
2021/10/31 08:36:24;;;;;;;10.13;7.90;;;11.70;99.90;;;;;;5054004;28;20117;-77
2021/10/31 08:38:49;;;;;;;14.02;8.40;;;11.80;99.90;;;;;;5052928;28;20484;-75
2021/10/31 08:41:18;;;;;;;10.98;7.38;;;11.90;99.90;;;;;;5053971;28;20025;-75
2021/10/31 08:43:44;;;;;;;9.75;7.38;;;12.00;99.90;;;;;;5052939;28;20032;-73
2021/10/31 08:46:11;;;;;;;8.88;6.93;;;12.10;99.90;;;;;;5053385;28;20029;-73
2021/10/31 08:48:38;;;;;;;10.32;5.70;;;12.30;99.90;;;;;;5053186;28;20037;-71
2021/10/31 08:51:05;;;;;;;9.20;6.68;;;12.60;99.90;;;;;;5052891;28;20032;-68
2021/10/31 08:53:32;;;;;;;7.38;5.65;;;12.80;99.90;;;;;;5052424;28;20029;-70
2021/10/31 08:55:59;;;;;;;6.63;4.78;;;12.90;99.90;;;;;;5052923;28;20448;-70
2021/10/31 08:58:25;;;;;;;5.50;4.40;;;13.00;99.90;;;;;;5053368;28;20033;-70
2021/10/31 09:00:51;;;;;;;6.38;4.63;;;13.00;99.90;;;;;;5051506;28;20021;-70
2021/10/31 09:03:18;;;;;;;5.25;4.43;;;13.10;99.90;;;;;;5053010;28;20041;-68
2021/10/31 09:05:50;;;;;;;7.00;4.30;;;13.10;99.90;;;;;;5053390;28;20378;-69
2021/10/31 09:08:16;;;;;;;6.07;4.53;;;13.10;99.90;;;;;;5053248;28;20029;-67
2021/10/31 09:10:42;;;;;;;7.13;4.88;;;13.20;99.90;;;;;;5054425;28;20053;-69
2021/10/31 09:13:09;;;;;;;8.20;5.07;;;13.20;99.90;;;;;;5050849;28;20063;-73
2021/10/31 09:15:35;;;;;;;7.93;4.63;;;13.30;99.90;;;;;;5053759;28;20421;-72
2021/10/31 09:18:03;;;;;;;4.15;3.75;;;13.40;99.90;;;;;;5050803;28;20033;-71
2021/10/31 09:20:33;;;;;;;4.28;3.88;;;13.40;99.90;;;;;;5052227;28;20025;-71
2021/10/31 09:23:02;;;;;;;5.13;3.60;;;13.40;99.90;;;;;;5052243;28;20417;-76
2021/10/31 09:25:28;;;;;;;4.80;4.05;;;13.40;99.90;;;;;;5053585;28;20316;-79
2021/10/31 09:27:56;;;;;;;4.05;3.65;;;13.50;99.90;;;;;;5051862;28;20087;-72
2021/10/31 09:30:24;;;;;;;7.18;3.90;;;13.50;99.90;;;;;;5053182;28;20029;-76
2021/10/31 09:32:50;;;;;;;4.68;3.60;;;13.60;99.90;;;;;;5052460;28;20039;-74
2021/10/31 09:35:22;;;;;;;4.75;3.67;;;13.80;99.90;;;;;;5053022;28;20470;-79
2021/10/31 09:37:52;;;;;;;6.85;3.38;;;13.90;99.90;;;;;;5051733;28;20037;-72
2021/10/31 09:40:19;;;;;;;3.45;3.15;;;14.00;99.90;;;;;;5052763;28;20043;-70
2021/10/31 09:42:53;;;;;;;3.15;2.67;;;14.10;99.90;;;;;;5052652;28;20060;-70
2021/10/31 09:45:21;;;;;;;3.55;2.85;;;14.20;99.90;;;;;;5052737;28;20061;-70
2021/10/31 09:48:03;;;;;;;3.38;2.90;;;14.30;99.90;;;;;;5052201;28;20036;-74
2021/10/31 09:50:31;;;;;;;3.35;2.60;;;14.50;99.90;;;;;;5032817;28;20102;-76
2021/10/31 09:53:00;;;;;;;3.70;2.95;;;14.70;99.90;;;;;;5038098;28;20477;-76
2021/10/31 09:55:27;;;;;;;3.90;2.67;;;14.80;99.90;;;;;;5052955;28;20021;-81
2021/10/31 09:57:53;;;;;;;2.80;2.28;;;14.90;99.90;;;;;;5051544;28;20057;-77
2021/10/31 10:00:31;;;;;;;3.88;2.10;;;15.00;99.90;;;;;;5052118;28;20056;-78
2021/10/31 10:05:28;;;;;;;3.13;2.17;;;15.30;99.90;;;;;;5052911;28;20350;-74
2021/10/31 10:08:12;;;;;;;2.35;1.85;;;15.40;99.90;;;;;;5051542;28;20119;-75
2021/10/31 10:10:56;;;;;;;3.10;1.60;;;;;;;;;;5032813;28;20079;-79
2021/10/31 10:13:25;;;;;;;3.35;1.80;;;;;;;;;;5043028;28;20021;-70
2021/10/31 10:15:52;;;;;;;1.70;1.60;;;;;;;;;;5051638;28;20021;-75
2021/10/31 10:18:31;;;;;;;2.97;1.80;;;;;;;;;;5051858;28;20072;-71
2021/10/31 10:21:18;;;;;;;2.72;1.70;;;;;;;;;;5051626;28;20048;-70
2021/10/31 10:24:07;;;;;;;4.38;2.17;;;16.30;99.90;;;;;;5052070;28;20440;-69
2021/10/31 10:26:36;;;;;;;2.03;1.88;;;16.40;99.90;;;;;;5050504;28;20025;-68
2021/10/31 10:29:28;;;;;;;2.15;1.95;;;16.50;99.90;;;;;;5030222;28;20034;-79
2021/10/31 10:32:04;;;;;;;2.55;1.98;;;16.50;99.90;;;;;;5031214;28;20029;-76
2021/10/31 10:34:47;;;;;;;3.20;1.75;;;16.70;99.90;;;;;;5032062;28;20081;-67
2021/10/31 10:37:15;;;;;;;2.25;1.80;;;16.80;99.90;;;;;;5031814;28;20033;-71
2021/10/31 10:39:43;;;;;;;4.22;2.45;;;16.90;99.90;;;;;;5044561;28;20539;-67
2021/10/31 10:42:09;;;;;;;4.57;2.20;;;16.90;99.90;;;;;;5050968;28;20600;-67
2021/10/31 10:44:39;;;;;;;3.47;1.60;;;17.00;99.90;;;;;;5051632;28;20049;-67
2021/10/31 10:47:12;;;;;;;3.97;2.45;;;17.20;99.90;;;;;;5050726;28;20055;-66
2021/10/31 10:49:41;;;;;;;3.72;2.17;;;17.40;99.90;;;;;;5051591;28;20567;-65
2021/10/31 10:52:21;;;;;;;3.63;2.45;;;17.60;99.90;;;;;;5051110;28;20124;-74
2021/10/31 10:54:59;;;;;;;3.58;2.40;;;17.70;99.90;;;;;;5051791;28;20037;-72
2021/10/31 10:57:27;;;;;;;3.78;2.65;;;17.80;99.90;;;;;;5051560;28;20033;-74
2021/10/31 11:00:08;;;;;;;2.50;2.20;;;17.90;99.90;;;;;;5050413;28;20386;-68
2021/10/31 11:02:34;;;;;;;5.50;2.70;;;18.10;99.90;;;;;;5051967;28;20079;-66
2021/10/31 11:05:03;;;;;;;2.50;2.30;;;18.30;99.90;;;;;;5051072;28;20021;-69
2021/10/31 11:07:31;;;;;;;3.03;2.60;;;18.40;99.90;;;;;;5051747;28;20037;-67
2021/10/31 11:09:58;;;;;;;2.92;2.25;;;18.60;99.90;;;;;;5050469;28;20055;-66
2021/10/31 11:12:33;;;;;;;3.80;2.50;;;18.70;99.90;;;;;;5051498;28;20032;-67
2021/10/31 11:15:18;;;;;;;3.22;2.25;;;18.90;99.90;;;;;;5050759;28;20028;-65
2021/10/31 11:17:47;;;;;;;3.13;2.10;;;18.90;93.90;;;;;;5051774;28;20167;-64
2021/10/31 11:20:16;;;;;;;2.08;1.60;;;19.00;92.80;;;;;;5050987;28;20037;-68
2021/10/31 11:22:45;;;;;;;1.85;1.67;;;19.00;90.90;;;;;;5051994;28;20024;-70
2021/10/31 11:25:14;;;;;;;1.92;1.73;;;19.10;90.60;;;;;;5051472;28;20028;-68
2021/10/31 11:27:40;;;;;;;3.33;1.70;;;19.10;88.10;;;;;;5051795;28;20470;-70
2021/10/31 11:30:08;;;;;;;2.80;2.47;;;19.10;87.80;;;;;;5050214;28;20498;-71
2021/10/31 11:32:37;;;;;;;2.05;1.90;;;19.20;90.50;;;;;;5051287;28;20060;-70
2021/10/31 11:35:04;;;;;;;3.85;2.42;;;;;;;;;;5049415;28;20371;-70
2021/10/31 11:37:38;;;;;;;2.30;2.10;;;19.40;99.90;;;;;;5053766;28;20025;-71
2021/10/31 11:40:09;;;;;;;3.08;2.25;;;;;;;;;;5054085;28;20025;-69
2021/10/31 11:42:46;;;;;;;1.98;1.77;;;;;;;;;;5055494;28;20489;-68
2021/10/31 11:45:13;;;;;;;2.92;1.98;;;;;;;;;;5054172;28;20053;-68
2021/10/31 11:47:40;;;;;;;1.40;1.30;;;;;;;;;;5055659;28;20021;-66
2021/10/31 11:50:11;;;;;;;2.03;1.63;;;;;;;;;;5054214;28;20033;-67
2021/10/31 11:52:46;;;;;;;3.28;1.42;;;;;;;;;;5055268;28;20025;-68
2021/10/31 11:55:46;;;;;;;2.85;2.20;;;;;;;;;;5053768;28;20096;-70
2021/10/31 11:58:27;;;;;;;2.92;2.00;;;20.30;78.40;;;;;;5049626;28;20134;-71
2021/10/31 12:00:56;;;;;;;2.22;2.00;;;20.30;79.80;;;;;;5032808;28;20484;-70
2021/10/31 12:03:44;;;;;;;2.42;2.03;;;20.40;80.10;;;;;;5034707;28;20029;-69
2021/10/31 12:06:15;;;;;;;1.42;1.33;;;20.40;77.20;;;;;;5047372;28;20029;-70
2021/10/31 12:08:51;;;;;;;1.60;1.50;;;20.40;73.90;;;;;;5054452;28;20516;-67
2021/10/31 12:11:17;;;;;;;2.63;1.80;;;20.40;73.10;;;;;;5050689;28;20033;-73
2021/10/31 12:13:47;;;;;;;2.78;1.90;;;20.40;74.00;;;;;;5054798;28;20453;-84
2021/10/31 12:16:15;;;;;;;2.13;1.80;;;20.50;75.00;;;;;;5053917;28;20041;-68
2021/10/31 12:18:52;;;;;;;2.35;2.00;;;20.50;74.60;;;;;;5054281;28;20033;-72
2021/10/31 12:21:33;;;;;;;3.97;2.00;;;20.70;72.60;;;;;;5054132;28;20032;-73
2021/10/31 12:24:03;;;;;;;2.58;1.67;;;20.70;72.60;;;;;;5053654;28;20470;-75
2021/10/31 12:26:35;;;;;;;2.35;1.67;;;20.80;71.10;;;;;;5054278;28;20087;-71
2021/10/31 12:29:11;;;;;;;2.85;2.03;;;21.10;69.60;;;;;;5053441;28;20080;-72
2021/10/31 12:31:38;;;;;;;3.15;1.70;;;21.40;80.70;;;;;;5054272;28;20036;-71
2021/10/31 12:34:16;;;;;;;1.95;1.65;;;21.70;87.20;;;;;;5053458;28;20021;-75
2021/10/31 12:36:53;;;;;;;4.63;1.85;;;22.00;65.40;;;;;;5054019;28;20108;-75
2021/10/31 12:39:26;;;;;;;1.70;1.60;;;22.60;89.20;;;;;;5054279;28;20463;-74
2021/10/31 12:42:26;;;;;;;3.25;1.80;;;23.20;60.10;;;;;;5053778;28;20055;-75
2021/10/31 12:45:16;;;;;;;2.65;1.70;;;23.30;60.00;;;;;;5022476;28;20049;-87
2021/10/31 12:47:56;;;;;;;1.55;1.30;;;23.70;59.60;;;;;;5029061;28;20037;-79
2021/10/31 12:50:30;;;;;;;1.77;1.67;;;23.90;59.80;;;;;;5034293;28;20061;-74
2021/10/31 12:53:01;;;;;;;2.10;1.90;;;24.10;60.10;;;;;;5053227;28;20017;-73
2021/10/31 12:55:28;;;;;;;3.38;2.60;;;24.30;58.70;;;;;;5053949;28;20055;-74
2021/10/31 12:57:57;;;;;;;2.90;2.35;;;24.40;57.80;;;;;;5052844;28;20078;-73
2021/10/31 13:00:25;;;;;;;2.60;1.85;;;24.40;56.30;;;;;;5053847;28;20086;-73
2021/10/31 13:02:54;;;;;;;2.38;1.85;;;24.20;55.90;;;;;;5053630;28;20037;-75
2021/10/31 13:05:35;;;;;;;2.15;1.83;;;23.90;56.60;;;;;;5053529;28;20454;-73
2021/10/31 13:08:02;;;;;;;1.98;1.70;;;23.40;57.40;;;;;;5053031;28;20470;-68